Latest Coastal Weather Observations for Hobart Airport

IDT60701

Issued at 1:11 pm EDT Monday 30 March 2015 (issued every 10 minutes, with the page automatically refreshed every 10 minutes)

About coastal observations | Map of coastal stations | Coastal observations for TAS | Marine services | Other Formats
Station Details ID: 094008 Name: HOBART AIRPORT Lat: -42.83 Lon: 147.50 Height: 4.0 m
Data from the previous 72 hours. | See also: Recent months at Hobart Airport
Date/Time
EDT
Temp

°C
Wind Pressure Rain
since 9am
mm
Weather Cloud Vis
km
Sea
Height
m
Swell
Dir
 
Speed
knots
Gust
knots
hPa Trend Height
m
Period
s
Dir
30/01:00pm 20.6 WNW 17 24 1018.3 - 0.0 - Mostly clear 10 - - - -
30/12:30pm 20.3 NW 15 20 1018.4 - 0.0 - Mostly clear 10 - - - -
30/12:00pm 19.1 NW 11 20 1018.7 R 0.0 Fine Mostly cloudy 35 - - - -
30/11:30am 18.3 NNW 8 11 1018.8 - 0.0 - Mostly clear 10 - - - -
30/11:00am 18.0 N 8 12 1018.8 - 0.0 - Mostly clear 10 - - - -
30/08:30am 13.8 N 7 11 1017.8 - 0.2 - Mostly clear 10 - - - -
30/08:00am 13.0 N 8 11 1017.7 - 0.2 - Mostly clear 10 - - - -
30/07:30am 11.3 N 8 11 1017.5 - 0.2 - Mostly clear 10 - - - -
30/07:00am 10.4 N 7 9 1017.1 - 0.2 - Mostly clear 10 - - - -
30/06:30am 10.3 N 5 6 1017.0 - 0.2 - Mostly clear 10 - - - -
30/06:00am 10.2 NNW 6 7 1016.9 F 0.2 Fine Partly cloudy 30 - - - -
30/05:30am 9.9 NNW 4 6 1016.9 - 0.2 - Mostly clear 10 - - - -
30/05:00am 9.8 N 4 5 1017.0 - 0.2 - Mostly clear 10 - - - -
30/04:30am 10.0 NW 5 8 1017.0 - 0.2 - Mostly clear 10 - - - -
30/04:00am 9.6 NNW 4 5 1016.9 - 0.2 - Mostly clear 10 - - - -
30/03:30am 9.9 N 5 7 1017.0 - 0.2 - Mostly clear 10 - - - -
30/03:00am 9.9 NW 6 8 1017.3 R 0.2 Fine Mostly clear 12 - - - -
30/02:30am 9.6 W 5 7 1017.5 - 0.2 - Mostly clear 10 - - - -
30/02:00am 9.6 W 5 6 1017.6 - 0.2 - Mostly clear 10 - - - -
30/01:30am 9.6 NW 3 5 1017.7 - 0.2 - Mostly clear 10 - - - -
30/01:00am 10.5 NNW 6 8 1017.9 - 0.2 - Mostly clear 10 - - - -
30/12:30am 10.5 N 5 7 1017.8 - 0.2 - Mostly clear 10 - - - -
 
Date/Time
EDT
Temp

°C
Wind Pressure Rain
since 9am
mm
Weather Cloud Vis
km
Sea
Height
m
Swell
Dir
 
Speed
knots
Gust
knots
hPa Trend Height
m
Period
s
Dir
29/11:30pm 9.7 NE 4 5 1018.2 - 0.2 - Mostly clear 10 - - - -
29/11:00pm 10.9 WNW 5 7 1018.3 - 0.2 - Mostly clear 10 - - - -
29/10:30pm 11.1 NW 5 7 1018.4 - 0.2 - Mostly clear 10 - - - -
29/10:00pm 10.5 W 1 6 1018.5 - 0.2 - Partly cloudy 10 - - - -
29/09:30pm 11.4 CALM 0 0 1018.4 - 0.2 - Partly cloudy 10 - - - -
29/09:00pm 12.3 SSE 3 5 1018.1 R 0.2 Fine Partly cloudy 20 - - - -
29/08:30pm 12.4 CALM 0 0 1017.8 - 0.2 - Partly cloudy 10 - - - -
29/08:00pm 12.8 CALM 0 0 1017.5 - 0.2 - Mostly clear 10 - - - -
29/07:30pm 13.4 CALM 0 0 1017.1 - 0.2 - Mostly clear 10 - - - -
29/07:00pm 13.5 SE 5 6 1017.1 - 0.2 - Mostly clear 10 - - - -
29/06:30pm 13.6 SE 5 8 1016.7 - 0.2 - Mostly clear 10 - - - -
29/06:00pm 13.9 SE 6 9 1016.5 R 0.2 Fine Mostly cloudy 25 - - - -
29/05:30pm 13.9 SSE 10 14 1016.2 - 0.2 - Mostly clear 10 - - - -
29/05:00pm 13.9 SSE 12 16 1016.1 - 0.2 - Mostly clear 10 - - - -
29/04:30pm 13.4 SSE 12 15 1016.0 - 0.2 Showers Mostly clear 10 - - - -
29/04:00pm 13.6 SSE 12 15 1015.7 - 0.2 - Mostly clear 10 - - - -
29/03:30pm 13.6 SSE 12 14 1015.7 - 0.2 - Mostly clear 10 - - - -
29/03:13pm 13.0 S 12 15 1015.5 - 0.2 - Mostly clear 10 - - - -
29/03:00pm 13.0 S 11 15 1015.6 R 0.2 Showers Mostly cloudy 15 - - - -
29/02:40pm 12.9 S 15 20 1015.6 - 0.0 Showers Mostly clear 7 - - - -
29/02:30pm 13.5 S 15 19 1015.2 - 0.0 Showers Mostly clear 8 - - - -
29/02:00pm 16.9 SW 13 16 1014.9 - 0.0 - Mostly clear 10 - - - -
29/01:30pm 18.4 W 11 17 1014.5 - 0.0 - Mostly clear 10 - - - -
29/01:00pm 18.1 WNW 15 21 1014.4 - 0.0 - Mostly clear 10 - - - -
29/12:30pm 17.9 NW 16 20 1014.3 - 0.0 - Mostly clear 10 - - - -
29/12:00pm 17.5 NW 16 22 1014.3 F 0.0 Fine Mostly cloudy 30 - - - -
29/11:30am 17.6 NNW 13 20 1014.5 - 0.0 - Mostly clear 10 - - - -
29/11:00am 16.7 NNW 12 20 1014.5 - 0.0 - Mostly clear 10 - - - -
29/10:30am 16.5 NNW 10 17 1014.7 - 0.0 - Mostly clear 10 - - - -
29/10:00am 16.2 NW 14 21 1014.5 - 0.0 - Mostly clear 10 - - - -
29/09:30am 16.4 NNW 13 18 1014.6 - 0.0 - Mostly clear 10 - - - -
29/09:00am 15.0 NNW 12 20 1014.7 F 0.2 Fine Mostly clear 40 - - - -
29/08:30am 13.9 NNW 14 18 1014.6 - 0.2 - Mostly clear 10 - - - -
29/08:00am 13.2 NW 11 15 1014.8 - 0.2 - Mostly clear 10 - - - -
29/07:30am 12.4 NW 11 14 1014.4 - 0.2 - Mostly clear 10 - - - -
29/07:00am 12.3 NW 11 15 1014.3 - 0.2 - Mostly clear 10 - - - -
29/06:30am 12.9 NW 9 15 1014.1 - 0.2 - Mostly clear 10 - - - -
29/06:00am 12.8 NNW 12 17 1014.2 F 0.2 Fine Partly cloudy 40 - - - -
29/05:30am 11.3 NNW 5 7 1014.2 - 0.2 - Mostly clear 10 - - - -
29/05:00am 11.2 N 10 15 1014.1 - 0.2 - Mostly clear 10 - - - -
29/04:30am 11.5 NW 10 15 1015.5 - 0.2 - Mostly clear 10 - - - -
29/04:00am 10.2 NNW 9 12 1014.9 - 0.2 - Mostly clear 10 - - - -
29/03:30am 11.1 NNW 10 14 1015.0 - 0.2 - Mostly clear 10 - - - -
29/03:00am 11.0 NNW 10 14 1015.1 F 0.2 Fine Mostly clear 40 - - - -
29/02:30am 11.6 NNW 9 13 1015.5 - 0.2 - Mostly clear 10 - - - -
29/02:00am 11.3 NNW 9 11 1015.8 - 0.2 - Mostly clear 10 - - - -
29/01:30am 12.0 NNW 11 15 1015.7 - 0.2 - Mostly clear 10 - - - -
29/01:00am 11.5 NNW 9 13 1016.1 - 0.2 - Mostly clear 10 - - - -
29/12:30am 12.2 N 8 11 1016.2 - 0.2 - - 10 - - - -
29/12:00am 10.3 N 1 4 1016.7 F 0.2 Fine Clear 40 - - - -
 
Date/Time
EDT
Temp

°C
Wind Pressure Rain
since 9am
mm
Weather Cloud Vis
km
Sea
Height
m
Swell
Dir
 
Speed
knots
Gust
knots
hPa Trend Height
m
Period
s
Dir
28/11:30pm 10.3 NW 5 6 1017.2 - 0.2 - - 10 - - - -
28/11:00pm 10.3 NW 5 5 1017.6 - 0.2 - - 10 - - - -
28/10:30pm 11.5 NW 4 7 1017.9 - 0.2 - - 10 - - - -
28/10:00pm 11.4 NW 3 5 1018.1 - 0.2 - Mostly clear 10 - - - -
28/09:30pm 10.5 NW 4 5 1018.2 - 0.2 - Mostly clear 10 - - - -
28/09:00pm 12.0 CALM 0 0 1018.1 F 0.2 Fine Clear 40 - - - -
28/08:30pm 12.4 CALM 0 0 1018.0 - 0.2 - - 10 - - - -
28/08:00pm 13.0 S 2 3 1017.9 - 0.2 - Mostly clear 10 - - - -
28/07:30pm 13.8 SSE 3 4 1017.9 - 0.2 - Mostly clear 10 - - - -
28/07:00pm 15.0 ESE 4 5 1017.9 - 0.2 - Mostly clear 10 - - - -
28/06:30pm 15.8 SE 5 7 1017.9 - 0.2 - Mostly clear 10 - - - -
28/06:00pm 16.4 SE 9 12 1017.6 F 0.2 Fine Mostly clear 40 - - - -
28/05:30pm 17.3 SE 9 12 1017.7 - 0.2 - Mostly clear 10 - - - -
28/05:00pm 17.5 SSE 9 11 1017.8 - 0.2 - Mostly clear 10 - - - -
28/04:30pm 17.0 SSE 9 12 1017.8 - 0.2 - Mostly clear 10 - - - -
28/04:00pm 17.7 SSE 8 10 1018.1 - 0.2 - Mostly clear 10 - - - -
28/03:30pm 17.3 SE 9 11 1018.3 - 0.2 - Mostly clear 10 - - - -
28/03:00pm 17.3 SSE 9 11 1018.5 F 0.2 Fine Mostly clear 40 - - - -
28/02:30pm 17.3 SSE 9 14 1018.7 - 0.2 - Mostly clear 10 - - - -
28/02:00pm 16.7 SE 8 11 1019.1 - 0.2 - Partly cloudy 10 - - - -
28/01:30pm 17.3 SW 6 10 1019.7 - 0.2 - Partly cloudy 10 - - - -
28/01:00pm 16.2 W 7 10 1020.0 - 0.0 - Partly cloudy 10 - - - -
28/12:30pm 15.7 W 8 13 1020.5 - 0.0 - Partly cloudy 10 - - - -
28/12:00pm 16.1 WNW 9 14 1020.8 F 0.0 Fine Partly cloudy 35 - - - -
28/11:30am 15.7 WNW 9 14 1021.0 - 0.0 - Partly cloudy 10 - - - -
28/11:00am 14.7 NNW 8 13 1021.2 - 0.0 - Partly cloudy 10 - - - -
28/10:30am 14.7 NNW 9 13 1021.4 - 0.0 - Mostly clear 10 - - - -
28/10:00am 13.9 NW 8 12 1021.4 - 0.0 - Mostly clear 10 - - - -
28/09:30am 12.8 NW 5 7 1021.3 - 0.0 - Mostly clear 10 - - - -
28/09:00am 11.9 NW 6 8 1021.4 S 2.0 Fine Mostly clear 35 - - - -
28/08:30am 10.7 CALM 0 0 1021.4 - 2.0 - Mostly clear 10 - - - -
28/08:00am 8.2 CALM 0 3 1021.2 - 2.0 - Mostly clear 10 - - - -
28/07:30am 8.9 WNW 3 4 1021.0 - 2.0 - Mostly clear 10 - - - -
28/07:00am 8.7 CALM 0 0 1020.9 - 2.0 - Mostly clear 10 - - - -
28/06:30am 10.7 WSW 5 7 1020.7 - 2.0 - Mostly clear 10 - - - -
28/06:00am 10.8 W 5 7 1020.6 R 2.0 Fine Partly cloudy 40 - - - -
28/05:30am 11.9 SW 8 10 1020.2 - 2.0 - Mostly cloudy 10 - - - -
28/05:00am 11.5 WSW 6 8 1020.1 - 2.0 - Mostly clear 10 - - - -
28/04:30am 10.9 SW 6 7 1020.1 - 2.0 - Mostly cloudy 10 - - - -
28/04:00am 11.2 SW 6 7 1020.0 - 2.0 - Mostly cloudy 10 - - - -
28/03:30am 11.7 CALM 0 0 1020.3 - 2.0 - Mostly cloudy 10 - - - -
28/03:00am 12.0 SW 4 5 1020.4 R 2.0 Fine Mostly cloudy 40 - - - -
28/02:30am 11.7 WSW 4 5 1020.5 - 2.0 - Mostly cloudy 10 - - - -
28/02:00am 11.7 WNW 5 5 1020.5 - 2.0 - Mostly clear 10 - - - -
28/01:30am 12.1 WSW 6 7 1020.4 - 2.0 - Mostly clear 10 - - - -
28/01:00am 12.4 SW 8 10 1020.5 - 2.0 - Mostly clear 10 - - - -
28/12:30am 12.0 SW 6 7 1020.3 - 2.0 - Mostly clear 10 - - - -
28/12:00am 12.3 SW 6 8 1020.3 R 2.0 Fine Mostly cloudy 30 - - - -
 
Date/Time
EDT
Temp

°C
Wind Pressure Rain
since 9am
mm
Weather Cloud Vis
km
Sea
Height
m
Swell
Dir
 
Speed
knots
Gust
knots
hPa Trend Height
m
Period
s
Dir
27/11:30pm 12.4 SW 6 8 1020.3 - 2.0 - Mostly clear 10 - - - -
27/11:00pm 12.1 SW 8 10 1020.3 - 2.0 - Mostly clear 10 - - - -
27/10:30pm 12.0 SSW 11 16 1020.1 - 2.0 Drizzle Mostly clear 10 - - - -
27/10:00pm 12.8 SW 9 12 1020.0 - 1.8 - Mostly clear 10 - - - -
27/09:30pm 12.8 SW 8 11 1019.8 - 1.8 Drizzle Mostly clear 10 - - - -
27/09:00pm 12.7 SW 7 9 1019.6 R 1.8 Recent precip. Mostly cloudy 30 - - - -
27/08:30pm 12.7 SW 7 11 1019.2 - 1.8 Showers Mostly clear 9 - - - -
27/08:00pm 12.4 SW 8 10 1018.8 - 1.8 - Mostly clear 10 - - - -
27/07:30pm 13.3 SW 9 13 1018.3 - 1.4 - Mostly clear 10 - - - -
27/07:00pm 13.5 SSW 10 16 1017.9 - 1.4 - Mostly clear 10 - - - -
27/06:30pm 13.1 SSW 14 17 1017.4 - 1.4 - Mostly clear 10 - - - -
27/06:00pm 12.8 SSW 17 23 1016.9 R 1.4 Fine Mostly cloudy 30 - - - -
27/05:50pm 12.6 SSW 15 22 1016.9 - 1.4 - Partly cloudy 10 - - - -
27/05:34pm 12.6 SSW 16 26 1016.7 - 1.4 Showers Partly cloudy 6 - - - -
27/05:30pm 12.7 SSW 15 20 1016.7 - 1.4 Showers Partly cloudy 6 - - - -
27/05:20pm 12.6 SSW 15 23 1016.5 - 1.4 Showers Partly cloudy 10 - - - -
27/05:08pm 12.4 SW 16 22 1016.3 - 1.4 Showers Mostly clear 5 - - - -
27/05:00pm 12.6 SW 17 22 1016.3 - 1.4 - Mostly clear 8 - - - -
27/04:43pm 12.8 SSW 18 22 1016.1 - 1.0 Showers Mostly clear 5 - - - -
27/04:30pm 14.4 SSW 15 20 1016.0 - 1.0 - Mostly clear 10 - - - -
27/04:00pm 14.6 SW 16 22 1015.7 - 1.0 - Partly cloudy 10 - - - -
27/03:30pm 14.5 SSW 15 20 1015.4 - 1.0 - Partly cloudy 10 - - - -
27/03:00pm 14.2 SSW 15 20 1014.8 R 1.0 Showers Mostly cloudy 30 - - - -
27/02:30pm 15.9 S 18 26 1014.3 - 1.0 - Mostly clear 10 - - - -
27/02:00pm 15.1 S 21 27 1014.4 - 1.0 - Mostly clear 10 - - - -
27/01:30pm 15.4 SSW 21 31 1013.9 - 1.0 - Mostly clear 10 - - - -
27/01:22pm 14.8 SSW 20 31 1013.8 - 1.0 - Mostly clear 10 - - - -

Other Formats:

Comma delimited format used in spreadsheet applications
http://www.bom.gov.au/fwo/IDT60701/IDT60701.94975.axf

JavaScript Object Notation format (JSON) in row-major order
http://www.bom.gov.au/fwo/IDT60701/IDT60701.94975.json